PWSweather.com
Personal Weather Stations
Station Observations
UWIDEPER1
Brown County, Depere, WI 54115

Brown CountyDepere, WI 54115

Lat: 44.44, Lon: -88.05

Elevation: 610

Station Type: Acurite 5in1

www.depereweather.com

High Low Average
Temperature 71.6°F22.0°F 49.6°F9.8°F 58.7°F14.8°F
Dew Point 58.5°F14.7°F 47.9°F8.8°F 52.4°F11.3°F
Winds 6.9 mph N11.1 mph N Calm Calm 2.8 mph 4.5 mph
Wind Gusts 11.5 mph18.5 mph -- 3.9 mph6.3 mph
Humidity 95% 62% 81%
Pressure 29.73 in1006.80 in 29.61 in1002.70 in -
Precipitation 0.00 in0.00 in - -
Hour Temp Dew Point Humidity Winds Wind Gusts Pressure Precip Precip Rate Daily Precip Total
12:00 AM 50.0°F10.0°C 48.1°F8.9°C 93% 3.5 mph NNE5.6 kmh NNE 3.5 mph5.6 kmh 29.65 in1004.1 mb - 0.00 in0.0 mm 0.00 in0.0 mm
12:10 AM 50.0°F10.0°C 48.1°F8.9°C 93% 4.6 mph NNW7.4 kmh NNW 9.2 mph14.8 kmh 29.64 in1003.7 mb - 0.00 in0.0 mm 0.00 in0.0 mm
12:15 AM 50.0°F10.0°C 48.1°F8.9°C 93% 3.5 mph N5.6 kmh N 2.3 mph3.7 kmh 29.64 in1003.7 mb - 0.00 in0.0 mm 0.00 in0.0 mm
12:20 AM 50.0°F10.0°C 48.1°F8.9°C 93% 3.5 mph N5.6 kmh N 4.6 mph7.4 kmh 29.65 in1004.1 mb - 0.00 in0.0 mm 0.00 in0.0 mm
12:25 AM 50.0°F10.0°C 48.1°F8.9°C 93% 3.5 mph NE5.6 kmh NE 2.3 mph3.7 kmh 29.65 in1004.1 mb - 0.00 in0.0 mm 0.00 in0.0 mm
12:30 AM 50.0°F10.0°C 48.1°F8.9°C 93% 3.5 mph N5.6 kmh N 8.1 mph13.0 kmh 29.65 in1004.1 mb - 0.00 in0.0 mm 0.00 in0.0 mm
12:35 AM 50.0°F10.0°C 48.1°F8.9°C 93% 2.3 mph NE3.7 kmh NE 3.5 mph5.6 kmh 29.64 in1003.7 mb - 0.00 in0.0 mm 0.00 in0.0 mm
12:40 AM 50.0°F10.0°C 48.1°F8.9°C 93% 3.5 mph NE5.6 kmh NE 3.5 mph5.6 kmh 29.65 in1004.1 mb - 0.00 in0.0 mm 0.00 in0.0 mm
12:45 AM 50.0°F10.0°C 48.1°F8.9°C 93% 2.3 mph N3.7 kmh N 2.3 mph3.7 kmh 29.65 in1004.1 mb - 0.00 in0.0 mm 0.00 in0.0 mm
12:50 AM 50.0°F10.0°C 48.1°F8.9°C 93% 4.6 mph E7.4 kmh E 3.5 mph5.6 kmh 29.65 in1004.1 mb - 0.00 in0.0 mm 0.00 in0.0 mm
12:55 AM 50.0°F10.0°C 48.1°F8.9°C 93% 3.5 mph NNE5.6 kmh NNE 5.8 mph9.3 kmh 29.64 in1003.7 mb - 0.00 in0.0 mm 0.00 in0.0 mm
01:00 AM 50.0°F10.0°C 48.1°F8.9°C 93% 3.5 mph N5.6 kmh N 5.8 mph9.3 kmh 29.64 in1003.7 mb - 0.00 in0.0 mm 0.00 in0.0 mm
01:10 AM 50.0°F10.0°C 48.1°F8.9°C 93% 2.3 mph N3.7 kmh N 3.5 mph5.6 kmh 29.64 in1003.7 mb - 0.00 in0.0 mm 0.00 in0.0 mm
01:15 AM 50.0°F10.0°C 48.1°F8.9°C 93% 2.3 mph 3.7 kmh 3.5 mph5.6 kmh 29.64 in1003.7 mb - 0.00 in0.0 mm 0.00 in0.0 mm
01:20 AM 50.0°F10.0°C 48.1°F8.9°C 93% 3.5 mph NNE5.6 kmh NNE 3.5 mph5.6 kmh 29.64 in1003.7 mb - 0.00 in0.0 mm 0.00 in0.0 mm
01:25 AM 50.0°F10.0°C 48.1°F8.9°C 93% 3.5 mph NNE5.6 kmh NNE 3.5 mph5.6 kmh 29.63 in1003.4 mb - 0.00 in0.0 mm 0.00 in0.0 mm
01:30 AM 50.0°F10.0°C 48.1°F8.9°C 93% 3.5 mph N5.6 kmh N 5.8 mph9.3 kmh 29.63 in1003.4 mb - 0.00 in0.0 mm 0.00 in0.0 mm
01:35 AM 50.0°F10.0°C 48.1°F8.9°C 93% 3.5 mph N5.6 kmh N 3.5 mph5.6 kmh 29.63 in1003.4 mb - 0.00 in0.0 mm 0.00 in0.0 mm
01:40 AM 50.0°F10.0°C 48.1°F8.9°C 93% 2.3 mph N3.7 kmh N 2.3 mph3.7 kmh 29.63 in1003.4 mb - 0.00 in0.0 mm 0.00 in0.0 mm
01:45 AM 50.0°F10.0°C 48.1°F8.9°C 93% 2.3 mph NNE3.7 kmh NNE 3.5 mph5.6 kmh 29.63 in1003.4 mb - 0.00 in0.0 mm 0.00 in0.0 mm
01:50 AM 50.0°F10.0°C 48.1°F8.9°C 93% 2.3 mph ENE3.7 kmh ENE 3.5 mph5.6 kmh 29.63 in1003.4 mb - 0.00 in0.0 mm 0.00 in0.0 mm
01:55 AM 50.0°F10.0°C 48.1°F8.9°C 93% 2.3 mph NE3.7 kmh NE 3.5 mph5.6 kmh 29.62 in1003.0 mb - 0.00 in0.0 mm 0.00 in0.0 mm
02:00 AM 50.0°F10.0°C 48.1°F8.9°C 93% 2.3 mph NE3.7 kmh NE 8.1 mph13.0 kmh 29.63 in1003.4 mb - 0.00 in0.0 mm 0.00 in0.0 mm
02:10 AM 50.0°F10.0°C 48.1°F8.9°C 93% 2.3 mph NNE3.7 kmh NNE 3.5 mph5.6 kmh 29.62 in1003.0 mb - 0.00 in0.0 mm 0.00 in0.0 mm
02:15 AM 50.0°F10.0°C 48.1°F8.9°C 93% 2.3 mph N3.7 kmh N 2.3 mph3.7 kmh 29.63 in1003.4 mb - 0.00 in0.0 mm 0.00 in0.0 mm
02:20 AM 50.0°F10.0°C 48.6°F9.2°C 95% 2.3 mph ENE3.7 kmh ENE 2.3 mph3.7 kmh 29.63 in1003.4 mb - 0.00 in0.0 mm 0.00 in0.0 mm
02:25 AM 50.0°F10.0°C 48.6°F9.2°C 95% 2.3 mph NNE3.7 kmh NNE 2.3 mph3.7 kmh 29.63 in1003.4 mb - 0.00 in0.0 mm 0.00 in0.0 mm
02:30 AM 50.0°F10.0°C 48.6°F9.2°C 95% 1.2 mph 1.9 kmh -- 29.62 in1003.0 mb - 0.00 in0.0 mm 0.00 in0.0 mm
02:35 AM 50.0°F10.0°C 48.6°F9.2°C 95% 1.2 mph NE1.9 kmh NE 2.3 mph3.7 kmh 29.62 in1003.0 mb - 0.00 in0.0 mm 0.00 in0.0 mm
02:40 AM 50.0°F10.0°C 48.6°F9.2°C 95% 2.3 mph NE3.7 kmh NE 3.5 mph5.6 kmh 29.63 in1003.4 mb - 0.00 in0.0 mm 0.00 in0.0 mm
02:45 AM 50.0°F10.0°C 48.6°F9.2°C 95% 1.2 mph N1.9 kmh N 2.3 mph3.7 kmh 29.63 in1003.4 mb - 0.00 in0.0 mm 0.00 in0.0 mm
02:50 AM 50.0°F10.0°C 48.6°F9.2°C 95% 2.3 mph NNW3.7 kmh NNW 3.5 mph5.6 kmh 29.63 in1003.4 mb - 0.00 in0.0 mm 0.00 in0.0 mm
02:55 AM 50.0°F10.0°C 48.6°F9.2°C 95% 2.3 mph ENE3.7 kmh ENE 3.5 mph5.6 kmh 29.63 in1003.4 mb - 0.00 in0.0 mm 0.00 in0.0 mm
03:00 AM 50.0°F10.0°C 48.6°F9.2°C 95% 2.3 mph NNW3.7 kmh NNW 4.6 mph7.4 kmh 29.63 in1003.4 mb - 0.00 in0.0 mm 0.00 in0.0 mm
03:10 AM 50.0°F10.0°C 48.6°F9.2°C 95% 2.3 mph NNE3.7 kmh NNE 3.5 mph5.6 kmh 29.63 in1003.4 mb - 0.00 in0.0 mm 0.00 in0.0 mm
03:15 AM 50.0°F10.0°C 48.6°F9.2°C 95% 2.3 mph NE3.7 kmh NE 3.5 mph5.6 kmh 29.63 in1003.4 mb - 0.00 in0.0 mm 0.00 in0.0 mm
03:20 AM 50.0°F10.0°C 48.6°F9.2°C 95% 2.3 mph N3.7 kmh N 5.8 mph9.3 kmh 29.63 in1003.4 mb - 0.00 in0.0 mm 0.00 in0.0 mm
03:25 AM 50.0°F10.0°C 48.6°F9.2°C 95% 3.5 mph NNE5.6 kmh NNE 3.5 mph5.6 kmh 29.63 in1003.4 mb - 0.00 in0.0 mm 0.00 in0.0 mm
03:30 AM 50.0°F10.0°C 48.6°F9.2°C 95% 2.3 mph NNE3.7 kmh NNE 4.6 mph7.4 kmh 29.63 in1003.4 mb - 0.00 in0.0 mm 0.00 in0.0 mm
03:35 AM 50.0°F10.0°C 48.6°F9.2°C 95% 3.5 mph NE5.6 kmh NE 5.8 mph9.3 kmh 29.62 in1003.0 mb - 0.00 in0.0 mm 0.00 in0.0 mm
03:40 AM 50.0°F10.0°C 48.6°F9.2°C 95% 3.5 mph NW5.6 kmh NW 3.5 mph5.6 kmh 29.63 in1003.4 mb - 0.00 in0.0 mm 0.00 in0.0 mm
03:45 AM 50.0°F10.0°C 48.6°F9.2°C 95% 2.3 mph W3.7 kmh W 4.6 mph7.4 kmh 29.63 in1003.4 mb - 0.00 in0.0 mm 0.00 in0.0 mm
03:50 AM 50.0°F10.0°C 48.6°F9.2°C 95% 4.6 mph NE7.4 kmh NE 4.6 mph7.4 kmh 29.63 in1003.4 mb - 0.00 in0.0 mm 0.00 in0.0 mm
03:55 AM 50.0°F10.0°C 48.6°F9.2°C 95% 3.5 mph E5.6 kmh E 3.5 mph5.6 kmh 29.63 in1003.4 mb - 0.00 in0.0 mm 0.00 in0.0 mm
04:00 AM 50.0°F10.0°C 48.1°F8.9°C 93% 4.6 mph NNW7.4 kmh NNW 6.9 mph11.1 kmh 29.63 in1003.4 mb - 0.00 in0.0 mm 0.00 in0.0 mm
04:10 AM 50.0°F10.0°C 48.1°F8.9°C 93% 3.5 mph NNE5.6 kmh NNE 5.8 mph9.3 kmh 29.63 in1003.4 mb - 0.00 in0.0 mm 0.00 in0.0 mm
04:15 AM 50.0°F10.0°C 48.1°F8.9°C 93% 4.6 mph N7.4 kmh N 4.6 mph7.4 kmh 29.62 in1003.0 mb - 0.00 in0.0 mm 0.00 in0.0 mm
04:20 AM 50.0°F10.0°C 48.1°F8.9°C 93% 3.5 mph NNE5.6 kmh NNE 6.9 mph11.1 kmh 29.63 in1003.4 mb - 0.00 in0.0 mm 0.00 in0.0 mm
04:25 AM 50.0°F10.0°C 48.1°F8.9°C 93% 3.5 mph N5.6 kmh N 5.8 mph9.3 kmh 29.63 in1003.4 mb - 0.00 in0.0 mm 0.00 in0.0 mm
04:30 AM 50.0°F10.0°C 48.1°F8.9°C 93% 4.6 mph N7.4 kmh N 4.6 mph7.4 kmh 29.63 in1003.4 mb - 0.00 in0.0 mm 0.00 in0.0 mm
04:35 AM 50.0°F10.0°C 48.1°F8.9°C 93% 3.5 mph NNW5.6 kmh NNW 4.6 mph7.4 kmh 29.63 in1003.4 mb - 0.00 in0.0 mm 0.00 in0.0 mm
04:40 AM 50.0°F10.0°C 48.1°F8.9°C 93% 3.5 mph E5.6 kmh E 3.5 mph5.6 kmh 29.63 in1003.4 mb - 0.00 in0.0 mm 0.00 in0.0 mm
04:45 AM 50.0°F10.0°C 48.1°F8.9°C 93% 2.3 mph NE3.7 kmh NE 3.5 mph5.6 kmh 29.63 in1003.4 mb - 0.00 in0.0 mm 0.00 in0.0 mm
04:50 AM 50.0°F10.0°C 48.1°F8.9°C 93% 2.3 mph ENE3.7 kmh ENE 2.3 mph3.7 kmh 29.63 in1003.4 mb - 0.00 in0.0 mm 0.00 in0.0 mm
04:55 AM 50.0°F10.0°C 48.1°F8.9°C 93% 3.5 mph ENE5.6 kmh ENE 4.6 mph7.4 kmh 29.64 in1003.7 mb - 0.00 in0.0 mm 0.00 in0.0 mm
05:00 AM 50.0°F10.0°C 48.1°F8.9°C 93% 3.5 mph N5.6 kmh N 4.6 mph7.4 kmh 29.64 in1003.7 mb - 0.00 in0.0 mm 0.00 in0.0 mm
05:10 AM 50.0°F10.0°C 48.1°F8.9°C 93% 2.3 mph NNE3.7 kmh NNE 3.5 mph5.6 kmh 29.63 in1003.4 mb - 0.00 in0.0 mm 0.00 in0.0 mm
05:15 AM 50.0°F10.0°C 48.1°F8.9°C 93% 2.3 mph NNE3.7 kmh NNE 3.5 mph5.6 kmh 29.63 in1003.4 mb - 0.00 in0.0 mm 0.00 in0.0 mm
05:20 AM 50.0°F10.0°C 48.1°F8.9°C 93% 2.3 mph N3.7 kmh N 3.5 mph5.6 kmh 29.63 in1003.4 mb - 0.00 in0.0 mm 0.00 in0.0 mm
05:25 AM 50.0°F10.0°C 48.1°F8.9°C 93% 2.3 mph NNW3.7 kmh NNW 3.5 mph5.6 kmh 29.63 in1003.4 mb - 0.00 in0.0 mm 0.00 in0.0 mm
05:30 AM 50.0°F10.0°C 48.1°F8.9°C 93% 2.3 mph WNW3.7 kmh WNW 3.5 mph5.6 kmh 29.63 in1003.4 mb - 0.00 in0.0 mm 0.00 in0.0 mm
05:35 AM 50.0°F10.0°C 48.1°F8.9°C 93% 1.2 mph N1.9 kmh N 2.3 mph3.7 kmh 29.63 in1003.4 mb - 0.00 in0.0 mm 0.00 in0.0 mm
05:40 AM 49.8°F9.9°C 47.9°F8.8°C 93% 1.2 mph N1.9 kmh N 3.5 mph5.6 kmh 29.63 in1003.4 mb - 0.00 in0.0 mm 0.00 in0.0 mm
05:45 AM 49.8°F9.9°C 47.9°F8.8°C 93% Calm Calm -- 29.63 in1003.4 mb - 0.00 in0.0 mm 0.00 in0.0 mm
05:50 AM 49.6°F9.8°C 48.3°F9.1°C 95% 1.2 mph W1.9 kmh W 2.3 mph3.7 kmh 29.63 in1003.4 mb - 0.00 in0.0 mm 0.00 in0.0 mm
05:55 AM 49.6°F9.8°C 48.3°F9.1°C 95% 2.3 mph WNW3.7 kmh WNW 5.8 mph9.3 kmh 29.63 in1003.4 mb - 0.00 in0.0 mm 0.00 in0.0 mm
06:00 AM 49.6°F9.8°C 48.3°F9.1°C 95% 2.3 mph N3.7 kmh N 3.5 mph5.6 kmh 29.63 in1003.4 mb - 0.00 in0.0 mm 0.00 in0.0 mm
06:10 AM 49.8°F9.9°C 48.4°F9.1°C 95% 1.2 mph WNW1.9 kmh WNW 2.3 mph3.7 kmh 29.63 in1003.4 mb - 0.00 in0.0 mm 0.00 in0.0 mm
06:15 AM 50.0°F10.0°C 48.6°F9.2°C 95% 2.3 mph N3.7 kmh N 3.5 mph5.6 kmh 29.64 in1003.7 mb - 0.00 in0.0 mm 0.00 in0.0 mm
06:20 AM 50.0°F10.0°C 48.6°F9.2°C 95% 2.3 mph N3.7 kmh N 1.2 mph1.9 kmh 29.64 in1003.7 mb - 0.00 in0.0 mm 0.00 in0.0 mm
06:25 AM 50.0°F10.0°C 48.6°F9.2°C 95% 2.3 mph NW3.7 kmh NW 5.8 mph9.3 kmh 29.63 in1003.4 mb - 0.00 in0.0 mm 0.00 in0.0 mm
06:30 AM 50.0°F10.0°C 48.1°F8.9°C 93% 2.3 mph NNE3.7 kmh NNE 2.3 mph3.7 kmh 29.64 in1003.7 mb - 0.00 in0.0 mm 0.00 in0.0 mm
06:35 AM 50.0°F10.0°C 48.1°F8.9°C 93% 2.3 mph NNE3.7 kmh NNE 3.5 mph5.6 kmh 29.64 in1003.7 mb - 0.00 in0.0 mm 0.00 in0.0 mm
06:40 AM 51.8°F11.0°C 49.8°F9.9°C 93% 2.3 mph ENE3.7 kmh ENE 4.6 mph7.4 kmh 29.64 in1003.7 mb - 0.00 in0.0 mm 0.00 in0.0 mm
06:45 AM 51.8°F11.0°C 49.8°F9.9°C 93% 2.3 mph NE3.7 kmh NE 3.5 mph5.6 kmh 29.64 in1003.7 mb - 0.00 in0.0 mm 0.00 in0.0 mm
06:50 AM 51.8°F11.0°C 49.5°F9.7°C 92% 2.3 mph NW3.7 kmh NW 3.5 mph5.6 kmh 29.64 in1003.7 mb - 0.00 in0.0 mm 0.00 in0.0 mm
06:55 AM 51.8°F11.0°C 49.3°F9.6°C 91% 3.5 mph N5.6 kmh N 5.8 mph9.3 kmh 29.65 in1004.1 mb - 0.00 in0.0 mm 0.00 in0.0 mm
07:00 AM 51.8°F11.0°C 49.3°F9.6°C 91% 2.3 mph NW3.7 kmh NW 3.5 mph5.6 kmh 29.65 in1004.1 mb - 0.00 in0.0 mm 0.00 in0.0 mm
07:10 AM 51.8°F11.0°C 49.3°F9.6°C 91% 3.5 mph N5.6 kmh N 4.6 mph7.4 kmh 29.64 in1003.7 mb - 0.00 in0.0 mm 0.00 in0.0 mm
07:15 AM 51.8°F11.0°C 49.3°F9.6°C 91% 3.5 mph N5.6 kmh N 3.5 mph5.6 kmh 29.65 in1004.1 mb - 0.00 in0.0 mm 0.00 in0.0 mm
07:20 AM 51.8°F11.0°C 49.0°F9.4°C 90% 2.3 mph N3.7 kmh N 3.5 mph5.6 kmh 29.64 in1003.7 mb - 0.00 in0.0 mm 0.00 in0.0 mm
07:25 AM 51.8°F11.0°C 49.0°F9.4°C 90% 2.3 mph E3.7 kmh E 2.3 mph3.7 kmh 29.64 in1003.7 mb - 0.00 in0.0 mm 0.00 in0.0 mm
07:30 AM 51.8°F11.0°C 49.0°F9.4°C 90% 2.3 mph NW3.7 kmh NW 2.3 mph3.7 kmh 29.65 in1004.1 mb - 0.00 in0.0 mm 0.00 in0.0 mm
07:35 AM 51.8°F11.0°C 49.0°F9.4°C 90% 2.3 mph N3.7 kmh N 5.8 mph9.3 kmh 29.64 in1003.7 mb - 0.00 in0.0 mm 0.00 in0.0 mm
07:40 AM 51.8°F11.0°C 49.0°F9.4°C 90% 3.5 mph NW5.6 kmh NW 6.9 mph11.1 kmh 29.64 in1003.7 mb - 0.00 in0.0 mm 0.00 in0.0 mm
07:45 AM 51.8°F11.0°C 48.4°F9.1°C 88% 2.3 mph NE3.7 kmh NE 3.5 mph5.6 kmh 29.64 in1003.7 mb - 0.00 in0.0 mm 0.00 in0.0 mm
07:50 AM 51.8°F11.0°C 48.4°F9.1°C 88% 3.5 mph NNE5.6 kmh NNE 4.6 mph7.4 kmh 29.65 in1004.1 mb - 0.00 in0.0 mm 0.00 in0.0 mm
07:55 AM 53.6°F12.0°C 50.1°F10.1°C 88% 2.3 mph NE3.7 kmh NE 2.3 mph3.7 kmh 29.65 in1004.1 mb - 0.00 in0.0 mm 0.00 in0.0 mm
08:00 AM 53.6°F12.0°C 49.5°F9.7°C 86% 2.3 mph NNW3.7 kmh NNW 3.5 mph5.6 kmh 29.65 in1004.1 mb - 0.00 in0.0 mm 0.00 in0.0 mm
08:10 AM 54.7°F12.6°C 50.6°F10.3°C 86% 3.5 mph NNW5.6 kmh NNW 2.3 mph3.7 kmh 29.65 in1004.1 mb - 0.00 in0.0 mm 0.00 in0.0 mm
08:15 AM 55.4°F13.0°C 50.3°F10.2°C 83% 3.5 mph WNW5.6 kmh WNW 3.5 mph5.6 kmh 29.66 in1004.4 mb - 0.00 in0.0 mm 0.00 in0.0 mm
08:20 AM 55.4°F13.0°C 50.3°F10.2°C 83% 2.3 mph WNW3.7 kmh WNW 3.5 mph5.6 kmh 29.66 in1004.4 mb - 0.00 in0.0 mm 0.00 in0.0 mm
08:25 AM 55.4°F13.0°C 50.3°F10.2°C 83% 3.5 mph NE5.6 kmh NE 3.5 mph5.6 kmh 29.66 in1004.4 mb - 0.00 in0.0 mm 0.00 in0.0 mm
08:30 AM 53.6°F12.0°C 49.2°F9.6°C 85% 4.6 mph ENE7.4 kmh ENE 4.6 mph7.4 kmh 29.66 in1004.4 mb - 0.00 in0.0 mm 0.00 in0.0 mm
08:35 AM 55.4°F13.0°C 51.0°F10.6°C 85% 3.5 mph W5.6 kmh W 4.6 mph7.4 kmh 29.67 in1004.7 mb - 0.00 in0.0 mm 0.00 in0.0 mm
08:40 AM 55.4°F13.0°C 51.0°F10.6°C 85% 3.5 mph N5.6 kmh N 5.8 mph9.3 kmh 29.66 in1004.4 mb - 0.00 in0.0 mm 0.00 in0.0 mm
08:45 AM 55.4°F13.0°C 50.6°F10.3°C 84% 4.6 mph NE7.4 kmh NE 3.5 mph5.6 kmh 29.66 in1004.4 mb - 0.00 in0.0 mm 0.00 in0.0 mm
08:50 AM 55.4°F13.0°C 50.3°F10.2°C 83% 2.3 mph NE3.7 kmh NE 3.5 mph5.6 kmh 29.67 in1004.7 mb - 0.00 in0.0 mm 0.00 in0.0 mm
08:55 AM 55.4°F13.0°C 50.3°F10.2°C 83% 3.5 mph N5.6 kmh N 5.8 mph9.3 kmh 29.66 in1004.4 mb - 0.00 in0.0 mm 0.00 in0.0 mm
09:00 AM 55.4°F13.0°C 50.3°F10.2°C 83% 4.6 mph N7.4 kmh N 3.5 mph5.6 kmh 29.67 in1004.7 mb - 0.00 in0.0 mm 0.00 in0.0 mm
09:10 AM 55.4°F13.0°C 50.3°F10.2°C 83% 3.5 mph NW5.6 kmh NW 4.6 mph7.4 kmh 29.66 in1004.4 mb - 0.00 in0.0 mm 0.00 in0.0 mm
09:15 AM 55.4°F13.0°C 50.3°F10.2°C 83% 4.6 mph NNE7.4 kmh NNE 8.1 mph13.0 kmh 29.66 in1004.4 mb - 0.00 in0.0 mm 0.00 in0.0 mm
09:20 AM 57.2°F14.0°C 52.1°F11.2°C 83% 3.5 mph N5.6 kmh N 6.9 mph11.1 kmh 29.66 in1004.4 mb - 0.00 in0.0 mm 0.00 in0.0 mm
09:25 AM 57.2°F14.0°C 51.4°F10.8°C 81% 3.5 mph E5.6 kmh E 5.8 mph9.3 kmh 29.66 in1004.4 mb - 0.00 in0.0 mm 0.00 in0.0 mm
09:30 AM 58.3°F14.6°C 52.5°F11.4°C 81% 3.5 mph NNE5.6 kmh NNE 3.5 mph5.6 kmh 29.66 in1004.4 mb - 0.00 in0.0 mm 0.00 in0.0 mm
09:35 AM 59.0°F15.0°C 52.8°F11.6°C 80% 4.6 mph NE7.4 kmh NE 5.8 mph9.3 kmh 29.66 in1004.4 mb - 0.00 in0.0 mm 0.00 in0.0 mm
09:40 AM 59.0°F15.0°C 52.8°F11.6°C 80% 4.6 mph NNE7.4 kmh NNE 6.9 mph11.1 kmh 29.66 in1004.4 mb - 0.00 in0.0 mm 0.00 in0.0 mm
09:45 AM 60.8°F16.0°C 54.2°F12.3°C 79% 2.3 mph N3.7 kmh N 2.3 mph3.7 kmh 29.66 in1004.4 mb - 0.00 in0.0 mm 0.00 in0.0 mm
09:50 AM 60.8°F16.0°C 53.9°F12.2°C 78% 2.3 mph ENE3.7 kmh ENE 4.6 mph7.4 kmh 29.66 in1004.4 mb - 0.00 in0.0 mm 0.00 in0.0 mm
09:55 AM 60.8°F16.0°C 53.9°F12.2°C 78% 2.3 mph NW3.7 kmh NW 9.2 mph14.8 kmh 29.66 in1004.4 mb - 0.00 in0.0 mm 0.00 in0.0 mm
10:00 AM 60.8°F16.0°C 53.9°F12.2°C 78% 4.6 mph NNE7.4 kmh NNE 5.8 mph9.3 kmh 29.66 in1004.4 mb - 0.00 in0.0 mm 0.00 in0.0 mm
10:10 AM 60.8°F16.0°C 54.2°F12.3°C 79% 3.5 mph NNW5.6 kmh NNW 3.5 mph5.6 kmh 29.65 in1004.1 mb - 0.00 in0.0 mm 0.00 in0.0 mm
10:15 AM 60.0°F15.6°C 53.5°F11.9°C 79% 3.5 mph NW5.6 kmh NW 2.3 mph3.7 kmh 29.66 in1004.4 mb - 0.00 in0.0 mm 0.00 in0.0 mm
10:20 AM 60.8°F16.0°C 53.9°F12.2°C 78% 3.5 mph N5.6 kmh N 3.5 mph5.6 kmh 29.65 in1004.1 mb - 0.00 in0.0 mm 0.00 in0.0 mm
10:25 AM 60.8°F16.0°C 53.9°F12.2°C 78% 4.6 mph ENE7.4 kmh ENE 5.8 mph9.3 kmh 29.66 in1004.4 mb - 0.00 in0.0 mm 0.00 in0.0 mm
10:30 AM 60.8°F16.0°C 53.9°F12.2°C 78% 4.6 mph NNE7.4 kmh NNE 4.6 mph7.4 kmh 29.65 in1004.1 mb - 0.00 in0.0 mm 0.00 in0.0 mm
10:35 AM 60.8°F16.0°C 53.9°F12.2°C 78% 3.5 mph WNW5.6 kmh WNW 5.8 mph9.3 kmh 29.66 in1004.4 mb - 0.00 in0.0 mm 0.00 in0.0 mm
10:40 AM 60.8°F16.0°C 53.9°F12.2°C 78% 5.8 mph W9.3 kmh W 8.1 mph13.0 kmh 29.65 in1004.1 mb - 0.00 in0.0 mm 0.00 in0.0 mm
10:45 AM 60.8°F16.0°C 53.2°F11.8°C 76% 4.6 mph W7.4 kmh W 5.8 mph9.3 kmh 29.65 in1004.1 mb - 0.00 in0.0 mm 0.00 in0.0 mm
10:50 AM 62.6°F17.0°C 54.9°F12.7°C 76% 4.6 mph N7.4 kmh N 6.9 mph11.1 kmh 29.64 in1003.7 mb - 0.00 in0.0 mm 0.00 in0.0 mm
10:55 AM 62.6°F17.0°C 54.6°F12.6°C 75% 3.5 mph ENE5.6 kmh ENE 3.5 mph5.6 kmh 29.64 in1003.7 mb - 0.00 in0.0 mm 0.00 in0.0 mm
11:00 AM 62.6°F17.0°C 54.6°F12.6°C 75% 4.6 mph NNE7.4 kmh NNE 4.6 mph7.4 kmh 29.64 in1003.7 mb - 0.00 in0.0 mm 0.00 in0.0 mm
11:10 AM 62.6°F17.0°C 54.6°F12.6°C 75% 4.6 mph N7.4 kmh N 6.9 mph11.1 kmh 29.65 in1004.1 mb - 0.00 in0.0 mm 0.00 in0.0 mm
11:15 AM 62.6°F17.0°C 54.6°F12.6°C 75% 4.6 mph NNE7.4 kmh NNE 8.1 mph13.0 kmh 29.65 in1004.1 mb - 0.00 in0.0 mm 0.00 in0.0 mm
11:20 AM 63.4°F17.4°C 55.4°F13.0°C 75% 4.6 mph NNE7.4 kmh NNE 9.2 mph14.8 kmh 29.65 in1004.1 mb - 0.00 in0.0 mm 0.00 in0.0 mm
11:25 AM 62.6°F17.0°C 54.6°F12.6°C 75% 4.6 mph NNW7.4 kmh NNW 9.2 mph14.8 kmh 29.65 in1004.1 mb - 0.00 in0.0 mm 0.00 in0.0 mm
11:30 AM 64.4°F18.0°C 56.3°F13.5°C 75% 3.5 mph ENE5.6 kmh ENE 3.5 mph5.6 kmh 29.65 in1004.1 mb - 0.00 in0.0 mm 0.00 in0.0 mm
11:35 AM 62.6°F17.0°C 54.6°F12.6°C 75% 4.6 mph NNE7.4 kmh NNE 4.6 mph7.4 kmh 29.65 in1004.1 mb - 0.00 in0.0 mm 0.00 in0.0 mm
11:40 AM 62.6°F17.0°C 54.6°F12.6°C 75% 3.5 mph N5.6 kmh N 4.6 mph7.4 kmh 29.65 in1004.1 mb - 0.00 in0.0 mm 0.00 in0.0 mm
11:45 AM 62.6°F17.0°C 54.6°F12.6°C 75% 4.6 mph N7.4 kmh N 8.1 mph13.0 kmh 29.64 in1003.7 mb - 0.00 in0.0 mm 0.00 in0.0 mm
11:50 AM 64.4°F18.0°C 56.3°F13.5°C 75% 4.6 mph NW7.4 kmh NW 6.9 mph11.1 kmh 29.65 in1004.1 mb - 0.00 in0.0 mm 0.00 in0.0 mm
11:55 AM 64.4°F18.0°C 55.9°F13.3°C 74% 4.6 mph W7.4 kmh W 5.8 mph9.3 kmh 29.65 in1004.1 mb - 0.00 in0.0 mm 0.00 in0.0 mm
12:00 PM 64.4°F18.0°C 56.3°F13.5°C 75% 3.5 mph WNW5.6 kmh WNW 4.6 mph7.4 kmh 29.65 in1004.1 mb - 0.00 in0.0 mm 0.00 in0.0 mm
12:10 PM 66.2°F19.0°C 57.3°F14.1°C 73% 4.6 mph NW7.4 kmh NW 5.8 mph9.3 kmh 29.64 in1003.7 mb - 0.00 in0.0 mm 0.00 in0.0 mm
12:15 PM 64.4°F18.0°C 55.6°F13.1°C 73% 4.6 mph NNW7.4 kmh NNW 5.8 mph9.3 kmh 29.64 in1003.7 mb - 0.00 in0.0 mm 0.00 in0.0 mm
12:20 PM 66.2°F19.0°C 56.9°F13.8°C 72% 4.6 mph WNW7.4 kmh WNW 4.6 mph7.4 kmh 29.64 in1003.7 mb - 0.00 in0.0 mm 0.00 in0.0 mm
12:25 PM 66.2°F19.0°C 56.9°F13.8°C 72% 3.5 mph WNW5.6 kmh WNW 6.9 mph11.1 kmh 29.64 in1003.7 mb - 0.00 in0.0 mm 0.00 in0.0 mm
12:30 PM 66.2°F19.0°C 57.3°F14.1°C 73% 3.5 mph 5.6 kmh 2.3 mph3.7 kmh 29.64 in1003.7 mb - 0.00 in0.0 mm 0.00 in0.0 mm
12:35 PM 66.2°F19.0°C 56.1°F13.4°C 70% 4.6 mph NNW7.4 kmh NNW 5.8 mph9.3 kmh 29.64 in1003.7 mb - 0.00 in0.0 mm 0.00 in0.0 mm
12:40 PM 66.2°F19.0°C 56.1°F13.4°C 70% 4.6 mph NE7.4 kmh NE 6.9 mph11.1 kmh 29.64 in1003.7 mb - 0.00 in0.0 mm 0.00 in0.0 mm
12:45 PM 66.3°F19.1°C 56.2°F13.4°C 70% 4.6 mph NW7.4 kmh NW 3.5 mph5.6 kmh 29.64 in1003.7 mb - 0.00 in0.0 mm 0.00 in0.0 mm
12:50 PM 66.2°F19.0°C 56.1°F13.4°C 70% 3.5 mph NNW5.6 kmh NNW 5.8 mph9.3 kmh 29.63 in1003.4 mb - 0.00 in0.0 mm 0.00 in0.0 mm
12:55 PM 68.0°F20.0°C 57.4°F14.1°C 69% 3.5 mph NW5.6 kmh NW 6.9 mph11.1 kmh 29.63 in1003.4 mb - 0.00 in0.0 mm 0.00 in0.0 mm
01:00 PM 68.0°F20.0°C 57.4°F14.1°C 69% 4.6 mph N7.4 kmh N 6.9 mph11.1 kmh 29.63 in1003.4 mb - 0.00 in0.0 mm 0.00 in0.0 mm
01:10 PM 68.0°F20.0°C 57.4°F14.1°C 69% 4.6 mph NW7.4 kmh NW 10.4 mph16.7 kmh 29.64 in1003.7 mb - 0.00 in0.0 mm 0.00 in0.0 mm
01:15 PM 68.0°F20.0°C 57.8°F14.3°C 70% 5.8 mph NNE9.3 kmh NNE 6.9 mph11.1 kmh 29.63 in1003.4 mb - 0.00 in0.0 mm 0.00 in0.0 mm
01:20 PM 66.2°F19.0°C 55.7°F13.2°C 69% 5.8 mph NE9.3 kmh NE 5.8 mph9.3 kmh 29.63 in1003.4 mb - 0.00 in0.0 mm 0.00 in0.0 mm
01:25 PM 68.0°F20.0°C 57.4°F14.1°C 69% 4.6 mph N7.4 kmh N 6.9 mph11.1 kmh 29.63 in1003.4 mb - 0.00 in0.0 mm 0.00 in0.0 mm
01:30 PM 68.0°F20.0°C 57.4°F14.1°C 69% 4.6 mph NNE7.4 kmh NNE 8.1 mph13.0 kmh 29.64 in1003.7 mb - 0.00 in0.0 mm 0.00 in0.0 mm
01:35 PM 68.0°F20.0°C 57.4°F14.1°C 69% 4.6 mph NNE7.4 kmh NNE 8.1 mph13.0 kmh 29.63 in1003.4 mb - 0.00 in0.0 mm 0.00 in0.0 mm
01:40 PM 66.2°F19.0°C 56.1°F13.4°C 70% 5.8 mph WSW9.3 kmh WSW 8.1 mph13.0 kmh 29.63 in1003.4 mb - 0.00 in0.0 mm 0.00 in0.0 mm
01:45 PM 68.0°F20.0°C 57.4°F14.1°C 69% 4.6 mph NNE7.4 kmh NNE 8.1 mph13.0 kmh 29.63 in1003.4 mb - 0.00 in0.0 mm 0.00 in0.0 mm
01:50 PM 68.0°F20.0°C 57.4°F14.1°C 69% 6.9 mph N11.1 kmh N 11.5 mph18.5 kmh 29.64 in1003.7 mb - 0.00 in0.0 mm 0.00 in0.0 mm
01:55 PM 68.0°F20.0°C 57.4°F14.1°C 69% 5.8 mph ENE9.3 kmh ENE 8.1 mph13.0 kmh 29.63 in1003.4 mb - 0.00 in0.0 mm 0.00 in0.0 mm
02:00 PM 68.0°F20.0°C 57.4°F14.1°C 69% 5.8 mph NW9.3 kmh NW 6.9 mph11.1 kmh 29.64 in1003.7 mb - 0.00 in0.0 mm 0.00 in0.0 mm
02:10 PM 68.0°F20.0°C 57.0°F13.9°C 68% 5.8 mph NNE9.3 kmh NNE 10.4 mph16.7 kmh 29.64 in1003.7 mb - 0.00 in0.0 mm 0.00 in0.0 mm
02:15 PM 68.0°F20.0°C 57.4°F14.1°C 69% 5.8 mph W9.3 kmh W 6.9 mph11.1 kmh 29.63 in1003.4 mb - 0.00 in0.0 mm 0.00 in0.0 mm
02:20 PM 68.0°F20.0°C 57.4°F14.1°C 69% 5.8 mph NW9.3 kmh NW 6.9 mph11.1 kmh 29.64 in1003.7 mb - 0.00 in0.0 mm 0.00 in0.0 mm
02:25 PM 68.0°F20.0°C 56.2°F13.4°C 66% 4.6 mph NW7.4 kmh NW 8.1 mph13.0 kmh 29.64 in1003.7 mb - 0.00 in0.0 mm 0.00 in0.0 mm
02:30 PM 69.1°F20.6°C 58.5°F14.7°C 69% 4.6 mph NNE7.4 kmh NNE 8.1 mph13.0 kmh 29.63 in1003.4 mb - 0.00 in0.0 mm 0.00 in0.0 mm
02:35 PM 69.8°F21.0°C 57.5°F14.2°C 65% 4.6 mph NNE7.4 kmh NNE 6.9 mph11.1 kmh 29.63 in1003.4 mb - 0.00 in0.0 mm 0.00 in0.0 mm
02:40 PM 68.0°F20.0°C 57.0°F13.9°C 68% 4.6 mph NNW7.4 kmh NNW 9.2 mph14.8 kmh 29.63 in1003.4 mb - 0.00 in0.0 mm 0.00 in0.0 mm
02:45 PM 69.8°F21.0°C 58.3°F14.6°C 67% 4.6 mph NNE7.4 kmh NNE 3.5 mph5.6 kmh 29.63 in1003.4 mb - 0.00 in0.0 mm 0.00 in0.0 mm
02:50 PM 69.8°F21.0°C 57.5°F14.2°C 65% 4.6 mph NW7.4 kmh NW 10.4 mph16.7 kmh 29.64 in1003.7 mb - 0.00 in0.0 mm 0.00 in0.0 mm
02:55 PM 68.0°F20.0°C 56.2°F13.4°C 66% 5.8 mph E9.3 kmh E 6.9 mph11.1 kmh 29.63 in1003.4 mb - 0.00 in0.0 mm 0.00 in0.0 mm
03:00 PM 69.8°F21.0°C 57.5°F14.2°C 65% 4.6 mph NNW7.4 kmh NNW 6.9 mph11.1 kmh 29.63 in1003.4 mb - 0.00 in0.0 mm 0.00 in0.0 mm
03:10 PM 68.0°F20.0°C 55.8°F13.2°C 65% 4.6 mph NE7.4 kmh NE 3.5 mph5.6 kmh 29.63 in1003.4 mb - 0.00 in0.0 mm 0.00 in0.0 mm
03:15 PM 68.0°F20.0°C 55.8°F13.2°C 65% 3.5 mph NNE5.6 kmh NNE 2.3 mph3.7 kmh 29.63 in1003.4 mb - 0.00 in0.0 mm 0.00 in0.0 mm
03:20 PM 69.8°F21.0°C 57.5°F14.2°C 65% 3.5 mph NNW5.6 kmh NNW 4.6 mph7.4 kmh 29.63 in1003.4 mb - 0.00 in0.0 mm 0.00 in0.0 mm
03:25 PM 69.8°F21.0°C 57.5°F14.2°C 65% 3.5 mph NW5.6 kmh NW 3.5 mph5.6 kmh 29.63 in1003.4 mb - 0.00 in0.0 mm 0.00 in0.0 mm
03:30 PM 68.7°F20.4°C 55.6°F13.1°C 63% 4.6 mph NNE7.4 kmh NNE 5.8 mph9.3 kmh 29.63 in1003.4 mb - 0.00 in0.0 mm 0.00 in0.0 mm
03:35 PM 69.8°F21.0°C 57.5°F14.2°C 65% 3.5 mph NNE5.6 kmh NNE 3.5 mph5.6 kmh 29.63 in1003.4 mb - 0.00 in0.0 mm 0.00 in0.0 mm
03:40 PM 69.8°F21.0°C 56.6°F13.7°C 63% 4.6 mph NE7.4 kmh NE 5.8 mph9.3 kmh 29.63 in1003.4 mb - 0.00 in0.0 mm 0.00 in0.0 mm
03:45 PM 69.8°F21.0°C 56.6°F13.7°C 63% 4.6 mph NNE7.4 kmh NNE 3.5 mph5.6 kmh 29.63 in1003.4 mb - 0.00 in0.0 mm 0.00 in0.0 mm
03:50 PM 69.8°F21.0°C 56.6°F13.7°C 63% 4.6 mph NNW7.4 kmh NNW 8.1 mph13.0 kmh 29.63 in1003.4 mb - 0.00 in0.0 mm 0.00 in0.0 mm
03:55 PM 69.8°F21.0°C 56.6°F13.7°C 63% 4.6 mph N7.4 kmh N 8.1 mph13.0 kmh 29.63 in1003.4 mb - 0.00 in0.0 mm 0.00 in0.0 mm
04:00 PM 69.8°F21.0°C 56.2°F13.4°C 62% 4.6 mph W7.4 kmh W 4.6 mph7.4 kmh 29.63 in1003.4 mb - 0.00 in0.0 mm 0.00 in0.0 mm
04:10 PM 69.8°F21.0°C 56.6°F13.7°C 63% 4.6 mph NE7.4 kmh NE 3.5 mph5.6 kmh 29.63 in1003.4 mb - 0.00 in0.0 mm 0.00 in0.0 mm
04:15 PM 69.8°F21.0°C 56.6°F13.7°C 63% 4.6 mph NE7.4 kmh NE 3.5 mph5.6 kmh 29.63 in1003.4 mb - 0.00 in0.0 mm 0.00 in0.0 mm
04:20 PM 69.8°F21.0°C 56.6°F13.7°C 63% 4.6 mph NE7.4 kmh NE 3.5 mph5.6 kmh 29.63 in1003.4 mb - 0.00 in0.0 mm 0.00 in0.0 mm
04:25 PM 69.8°F21.0°C 56.6°F13.7°C 63% 4.6 mph NE7.4 kmh NE 3.5 mph5.6 kmh 29.63 in1003.4 mb - 0.00 in0.0 mm 0.00 in0.0 mm
04:30 PM 69.8°F21.0°C 56.6°F13.7°C 63% 3.5 mph NNE5.6 kmh NNE 3.5 mph5.6 kmh 29.63 in1003.4 mb - 0.00 in0.0 mm 0.00 in0.0 mm
04:35 PM 69.8°F21.0°C 56.6°F13.7°C 63% 3.5 mph W5.6 kmh W 5.8 mph9.3 kmh 29.63 in1003.4 mb - 0.00 in0.0 mm 0.00 in0.0 mm
04:40 PM 71.6°F22.0°C 58.3°F14.6°C 63% 2.3 mph ESE3.7 kmh ESE 3.5 mph5.6 kmh 29.63 in1003.4 mb - 0.00 in0.0 mm 0.00 in0.0 mm
04:45 PM 69.8°F21.0°C 56.6°F13.7°C 63% 2.3 mph N3.7 kmh N 4.6 mph7.4 kmh 29.63 in1003.4 mb - 0.00 in0.0 mm 0.00 in0.0 mm
04:50 PM 69.8°F21.0°C 56.6°F13.7°C 63% 2.3 mph N3.7 kmh N 3.5 mph5.6 kmh 29.61 in1002.7 mb - 0.00 in0.0 mm 0.00 in0.0 mm
04:55 PM 69.8°F21.0°C 56.6°F13.7°C 63% 3.5 mph NW5.6 kmh NW 8.1 mph13.0 kmh 29.61 in1002.7 mb - 0.00 in0.0 mm 0.00 in0.0 mm
05:00 PM 69.8°F21.0°C 56.6°F13.7°C 63% 4.6 mph WNW7.4 kmh WNW 3.5 mph5.6 kmh 29.62 in1003.0 mb - 0.00 in0.0 mm 0.00 in0.0 mm
05:10 PM 68.0°F20.0°C 55.8°F13.2°C 65% 4.6 mph NNW7.4 kmh NNW 3.5 mph5.6 kmh 29.62 in1003.0 mb - 0.00 in0.0 mm 0.00 in0.0 mm
05:15 PM 69.8°F21.0°C 57.5°F14.2°C 65% 3.5 mph N5.6 kmh N 2.3 mph3.7 kmh 29.61 in1002.7 mb - 0.00 in0.0 mm 0.00 in0.0 mm
05:20 PM 69.8°F21.0°C 57.5°F14.2°C 65% 2.3 mph NE3.7 kmh NE 3.5 mph5.6 kmh 29.61 in1002.7 mb - 0.00 in0.0 mm 0.00 in0.0 mm
05:25 PM 69.8°F21.0°C 56.6°F13.7°C 63% 2.3 mph NNE3.7 kmh NNE 3.5 mph5.6 kmh 29.61 in1002.7 mb - 0.00 in0.0 mm 0.00 in0.0 mm
05:30 PM 69.8°F21.0°C 56.6°F13.7°C 63% 2.3 mph NW3.7 kmh NW 3.5 mph5.6 kmh 29.62 in1003.0 mb - 0.00 in0.0 mm 0.00 in0.0 mm
05:35 PM 69.8°F21.0°C 56.6°F13.7°C 63% 2.3 mph N3.7 kmh N 3.5 mph5.6 kmh 29.61 in1002.7 mb - 0.00 in0.0 mm 0.00 in0.0 mm
05:40 PM 69.8°F21.0°C 56.6°F13.7°C 63% 2.3 mph NNE3.7 kmh NNE 3.5 mph5.6 kmh 29.62 in1003.0 mb - 0.00 in0.0 mm 0.00 in0.0 mm
05:45 PM 69.8°F21.0°C 56.6°F13.7°C 63% 3.5 mph N5.6 kmh N 2.3 mph3.7 kmh 29.61 in1002.7 mb - 0.00 in0.0 mm 0.00 in0.0 mm
05:50 PM 69.8°F21.0°C 56.6°F13.7°C 63% 2.3 mph E3.7 kmh E 3.5 mph5.6 kmh 29.61 in1002.7 mb - 0.00 in0.0 mm 0.00 in0.0 mm
05:55 PM 68.2°F20.1°C 56.0°F13.3°C 65% 2.3 mph E3.7 kmh E 2.3 mph3.7 kmh 29.61 in1002.7 mb - 0.00 in0.0 mm 0.00 in0.0 mm
06:00 PM 69.8°F21.0°C 57.5°F14.2°C 65% 1.2 mph ESE1.9 kmh ESE 3.5 mph5.6 kmh 29.62 in1003.0 mb - 0.00 in0.0 mm 0.00 in0.0 mm
06:10 PM 68.0°F20.0°C 55.4°F13.0°C 64% 2.3 mph W3.7 kmh W 4.6 mph7.4 kmh 29.62 in1003.0 mb - 0.00 in0.0 mm 0.00 in0.0 mm
06:15 PM 68.0°F20.0°C 54.9°F12.7°C 63% 2.3 mph NNE3.7 kmh NNE 3.5 mph5.6 kmh 29.62 in1003.0 mb - 0.00 in0.0 mm 0.00 in0.0 mm
06:20 PM 68.0°F20.0°C 54.9°F12.7°C 63% 2.3 mph E3.7 kmh E 2.3 mph3.7 kmh 29.62 in1003.0 mb - 0.00 in0.0 mm 0.00 in0.0 mm
06:25 PM 68.0°F20.0°C 54.9°F12.7°C 63% 2.3 mph N3.7 kmh N 2.3 mph3.7 kmh 29.62 in1003.0 mb - 0.00 in0.0 mm 0.00 in0.0 mm
06:30 PM 69.8°F21.0°C 56.6°F13.7°C 63% 2.3 mph W3.7 kmh W 3.5 mph5.6 kmh 29.62 in1003.0 mb - 0.00 in0.0 mm 0.00 in0.0 mm
06:35 PM 68.5°F20.3°C 55.4°F13.0°C 63% 2.3 mph NE3.7 kmh NE 3.5 mph5.6 kmh 29.62 in1003.0 mb - 0.00 in0.0 mm 0.00 in0.0 mm
06:40 PM 68.0°F20.0°C 55.8°F13.2°C 65% 1.2 mph ENE1.9 kmh ENE 2.3 mph3.7 kmh 29.62 in1003.0 mb - 0.00 in0.0 mm 0.00 in0.0 mm
06:45 PM 68.0°F20.0°C 54.9°F12.7°C 63% 1.2 mph NNE1.9 kmh NNE 3.5 mph5.6 kmh 29.63 in1003.4 mb - 0.00 in0.0 mm 0.00 in0.0 mm
06:50 PM 68.0°F20.0°C 54.9°F12.7°C 63% 2.3 mph NNE3.7 kmh NNE 3.5 mph5.6 kmh 29.62 in1003.0 mb - 0.00 in0.0 mm 0.00 in0.0 mm
06:55 PM 68.0°F20.0°C 54.9°F12.7°C 63% 1.2 mph ENE1.9 kmh ENE 2.3 mph3.7 kmh 29.63 in1003.4 mb - 0.00 in0.0 mm 0.00 in0.0 mm
07:00 PM 68.0°F20.0°C 55.8°F13.2°C 65% 1.2 mph NE1.9 kmh NE 1.2 mph1.9 kmh 29.63 in1003.4 mb - 0.00 in0.0 mm 0.00 in0.0 mm
07:10 PM 68.0°F20.0°C 55.8°F13.2°C 65% 2.3 mph W3.7 kmh W 3.5 mph5.6 kmh 29.63 in1003.4 mb - 0.00 in0.0 mm 0.00 in0.0 mm
07:15 PM 66.2°F19.0°C 57.7°F14.3°C 74% 2.3 mph E3.7 kmh E 3.5 mph5.6 kmh 29.64 in1003.7 mb - 0.00 in0.0 mm 0.00 in0.0 mm
07:20 PM 64.9°F18.3°C 56.8°F13.8°C 75% 2.3 mph SE3.7 kmh SE 3.5 mph5.6 kmh 29.64 in1003.7 mb - 0.00 in0.0 mm 0.00 in0.0 mm
07:25 PM 64.4°F18.0°C 56.3°F13.5°C 75% 1.2 mph ESE1.9 kmh ESE 2.3 mph3.7 kmh 29.64 in1003.7 mb - 0.00 in0.0 mm 0.00 in0.0 mm
07:30 PM 64.4°F18.0°C 56.3°F13.5°C 75% 1.2 mph E1.9 kmh E 2.3 mph3.7 kmh 29.64 in1003.7 mb - 0.00 in0.0 mm 0.00 in0.0 mm
07:35 PM 64.4°F18.0°C 56.3°F13.5°C 75% 1.2 mph ENE1.9 kmh ENE 1.2 mph1.9 kmh 29.64 in1003.7 mb - 0.00 in0.0 mm 0.00 in0.0 mm
07:40 PM 64.4°F18.0°C 56.7°F13.7°C 76% 2.3 mph ESE3.7 kmh ESE 2.3 mph3.7 kmh 29.64 in1003.7 mb - 0.00 in0.0 mm 0.00 in0.0 mm
07:45 PM 64.4°F18.0°C 56.7°F13.7°C 76% Calm Calm -- 29.65 in1004.1 mb - 0.00 in0.0 mm 0.00 in0.0 mm
07:50 PM 64.4°F18.0°C 57.4°F14.1°C 78% Calm Calm -- 29.65 in1004.1 mb - 0.00 in0.0 mm 0.00 in0.0 mm
07:55 PM 62.6°F17.0°C 55.6°F13.1°C 78% Calm Calm -- 29.65 in1004.1 mb - 0.00 in0.0 mm 0.00 in0.0 mm
08:00 PM 62.6°F17.0°C 55.6°F13.1°C 78% Calm Calm -- 29.65 in1004.1 mb - 0.00 in0.0 mm 0.00 in0.0 mm
08:10 PM 62.6°F17.0°C 54.9°F12.7°C 76% Calm Calm 1.2 mph1.9 kmh 29.65 in1004.1 mb - 0.00 in0.0 mm 0.00 in0.0 mm
08:15 PM 62.6°F17.0°C 54.9°F12.7°C 76% Calm Calm -- 29.66 in1004.4 mb - 0.00 in0.0 mm 0.00 in0.0 mm
08:20 PM 62.6°F17.0°C 55.3°F12.9°C 77% Calm Calm -- 29.65 in1004.1 mb - 0.00 in0.0 mm 0.00 in0.0 mm
08:25 PM 62.5°F16.9°C 55.9°F13.3°C 79% Calm Calm -- 29.65 in1004.1 mb - 0.00 in0.0 mm 0.00 in0.0 mm
08:30 PM 60.8°F16.0°C 54.2°F12.3°C 79% Calm Calm 1.2 mph1.9 kmh 29.65 in1004.1 mb - 0.00 in0.0 mm 0.00 in0.0 mm
08:35 PM 60.8°F16.0°C 54.6°F12.6°C 80% Calm Calm 1.2 mph1.9 kmh 29.66 in1004.4 mb - 0.00 in0.0 mm 0.00 in0.0 mm
08:40 PM 60.8°F16.0°C 54.6°F12.6°C 80% Calm Calm -- 29.66 in1004.4 mb - 0.00 in0.0 mm 0.00 in0.0 mm
08:45 PM 59.0°F15.0°C 52.8°F11.6°C 80% Calm Calm -- 29.67 in1004.7 mb - 0.00 in0.0 mm 0.00 in0.0 mm
08:50 PM 59.0°F15.0°C 53.2°F11.8°C 81% Calm Calm 1.2 mph1.9 kmh 29.67 in1004.7 mb - 0.00 in0.0 mm 0.00 in0.0 mm
08:55 PM 59.0°F15.0°C 53.2°F11.8°C 81% Calm Calm -- 29.67 in1004.7 mb - 0.00 in0.0 mm 0.00 in0.0 mm
09:00 PM 59.0°F15.0°C 53.2°F11.8°C 81% Calm Calm -- 29.67 in1004.7 mb - 0.00 in0.0 mm 0.00 in0.0 mm
09:10 PM 57.2°F14.0°C 51.4°F10.8°C 81% Calm Calm -- 29.67 in1004.7 mb - 0.00 in0.0 mm 0.00 in0.0 mm
09:15 PM 57.2°F14.0°C 52.1°F11.2°C 83% 1.2 mph E1.9 kmh E 1.2 mph1.9 kmh 29.67 in1004.7 mb - 0.00 in0.0 mm 0.00 in0.0 mm
09:20 PM 57.2°F14.0°C 52.1°F11.2°C 83% Calm Calm 1.2 mph1.9 kmh 29.68 in1005.1 mb - 0.00 in0.0 mm 0.00 in0.0 mm
09:25 PM 57.2°F14.0°C 52.1°F11.2°C 83% 1.2 mph E1.9 kmh E 2.3 mph3.7 kmh 29.68 in1005.1 mb - 0.00 in0.0 mm 0.00 in0.0 mm
09:30 PM 57.2°F14.0°C 52.1°F11.2°C 83% 1.2 mph ENE1.9 kmh ENE 2.3 mph3.7 kmh 29.68 in1005.1 mb - 0.00 in0.0 mm 0.00 in0.0 mm
09:35 PM 57.2°F14.0°C 52.1°F11.2°C 83% Calm Calm -- 29.68 in1005.1 mb - 0.00 in0.0 mm 0.00 in0.0 mm
09:40 PM 57.2°F14.0°C 52.1°F11.2°C 83% 1.2 mph E1.9 kmh E 2.3 mph3.7 kmh 29.69 in1005.4 mb - 0.00 in0.0 mm 0.00 in0.0 mm
09:45 PM 57.2°F14.0°C 52.7°F11.5°C 85% 2.3 mph E3.7 kmh E 3.5 mph5.6 kmh 29.69 in1005.4 mb - 0.00 in0.0 mm 0.00 in0.0 mm
09:50 PM 57.2°F14.0°C 52.7°F11.5°C 85% 2.3 mph E3.7 kmh E 3.5 mph5.6 kmh 29.70 in1005.8 mb - 0.00 in0.0 mm 0.00 in0.0 mm
09:55 PM 57.2°F14.0°C 52.7°F11.5°C 85% 1.2 mph E1.9 kmh E 1.2 mph1.9 kmh 29.70 in1005.8 mb - 0.00 in0.0 mm 0.00 in0.0 mm
10:00 PM 55.4°F13.0°C 51.0°F10.6°C 85% 1.2 mph E1.9 kmh E 1.2 mph1.9 kmh 29.70 in1005.8 mb - 0.00 in0.0 mm 0.00 in0.0 mm
10:10 PM 55.4°F13.0°C 51.3°F10.7°C 86% 1.2 mph E1.9 kmh E 3.5 mph5.6 kmh 29.71 in1006.1 mb - 0.00 in0.0 mm 0.00 in0.0 mm
10:15 PM 55.4°F13.0°C 51.3°F10.7°C 86% 1.2 mph E1.9 kmh E -- 29.71 in1006.1 mb - 0.00 in0.0 mm 0.00 in0.0 mm
10:20 PM 55.4°F13.0°C 51.3°F10.7°C 86% 1.2 mph E1.9 kmh E 1.2 mph1.9 kmh 29.72 in1006.4 mb - 0.00 in0.0 mm 0.00 in0.0 mm
10:25 PM 55.4°F13.0°C 51.3°F10.7°C 86% Calm Calm -- 29.72 in1006.4 mb - 0.00 in0.0 mm 0.00 in0.0 mm
10:30 PM 55.3°F12.9°C 51.2°F10.7°C 86% Calm Calm 1.2 mph1.9 kmh 29.72 in1006.4 mb - 0.00 in0.0 mm 0.00 in0.0 mm
10:35 PM 53.6°F12.0°C 50.1°F10.1°C 88% Calm Calm -- 29.72 in1006.4 mb - 0.00 in0.0 mm 0.00 in0.0 mm
10:40 PM 53.6°F12.0°C 50.1°F10.1°C 88% Calm Calm -- 29.72 in1006.4 mb - 0.00 in0.0 mm 0.00 in0.0 mm
10:45 PM 53.6°F12.0°C 50.1°F10.1°C 88% Calm Calm 1.2 mph1.9 kmh 29.72 in1006.4 mb - 0.00 in0.0 mm 0.00 in0.0 mm
10:50 PM 53.6°F12.0°C 50.1°F10.1°C 88% Calm Calm -- 29.72 in1006.4 mb - 0.00 in0.0 mm 0.00 in0.0 mm
10:55 PM 53.6°F12.0°C 50.1°F10.1°C 88% Calm Calm -- 29.73 in1006.8 mb - 0.00 in0.0 mm 0.00 in0.0 mm
11:00 PM 53.6°F12.0°C 50.7°F10.4°C 90% Calm Calm -- 29.73 in1006.8 mb - 0.00 in0.0 mm 0.00 in0.0 mm
11:10 PM 51.8°F11.0°C 48.4°F9.1°C 88% Calm Calm -- 29.73 in1006.8 mb - 0.00 in0.0 mm 0.00 in0.0 mm
11:15 PM 51.8°F11.0°C 48.4°F9.1°C 88% Calm Calm -- 29.73 in1006.8 mb - 0.00 in0.0 mm 0.00 in0.0 mm
11:20 PM 51.8°F11.0°C 49.0°F9.4°C 90% Calm Calm -- 29.73 in1006.8 mb - 0.00 in0.0 mm 0.00 in0.0 mm
11:25 PM 51.8°F11.0°C 49.0°F9.4°C 90% Calm Calm -- 29.73 in1006.8 mb - 0.00 in0.0 mm 0.00 in0.0 mm
11:30 PM 51.8°F11.0°C 49.3°F9.6°C 91% Calm Calm -- 29.73 in1006.8 mb - 0.00 in0.0 mm 0.00 in0.0 mm
11:35 PM 51.8°F11.0°C 49.3°F9.6°C 91% Calm Calm -- 29.73 in1006.8 mb - 0.00 in0.0 mm 0.00 in0.0 mm
11:40 PM 51.8°F11.0°C 49.3°F9.6°C 91% Calm Calm -- 29.73 in1006.8 mb - 0.00 in0.0 mm 0.00 in0.0 mm
11:45 PM 51.8°F11.0°C 49.3°F9.6°C 91% Calm Calm -- 29.73 in1006.8 mb - 0.00 in0.0 mm 0.00 in0.0 mm
11:50 PM 51.8°F11.0°C 49.3°F9.6°C 91% Calm Calm -- 29.73 in1006.8 mb - 0.00 in0.0 mm 0.00 in0.0 mm
11:55 PM 51.8°F11.0°C 49.3°F9.6°C 91% Calm Calm -- 29.73 in1006.8 mb - 0.00 in0.0 mm 0.00 in0.0 mm